createdAt,value
2023-04-26T00:00:57.302Z,0.36
2023-04-26T00:01:57.316Z,0.34
2023-04-26T00:02:57.462Z,0.34
2023-04-26T00:03:57.575Z,0.34
2023-04-26T00:04:57.602Z,0.34
2023-04-26T00:05:57.531Z,0.34
2023-04-26T00:06:57.381Z,0.34
2023-04-26T00:07:57.420Z,0.38
2023-04-26T00:08:57.448Z,0.42
2023-04-26T00:09:57.491Z,0.48
2023-04-26T00:10:57.540Z,0.50
2023-04-26T00:11:57.543Z,0.50
2023-04-26T00:12:57.576Z,0.50
2023-04-26T00:13:57.607Z,0.50
2023-04-26T00:14:57.625Z,0.50
2023-04-26T00:15:57.718Z,0.50
2023-04-26T00:16:57.685Z,0.50
2023-04-26T00:17:57.772Z,0.50
2023-04-26T00:18:57.725Z,0.50
2023-04-26T00:19:57.743Z,0.50
2023-04-26T00:20:57.741Z,0.50
2023-04-26T00:21:57.745Z,0.51
2023-04-26T00:22:57.782Z,0.50
2023-04-26T00:23:57.791Z,0.50
2023-04-26T00:24:57.820Z,0.51
2023-04-26T00:25:57.869Z,0.51
2023-04-26T00:26:57.925Z,0.50
2023-04-26T00:27:57.929Z,0.51
2023-04-26T00:28:57.982Z,0.50
2023-04-26T00:29:57.998Z,0.50
2023-04-26T00:30:58.170Z,0.50
2023-04-26T00:31:58.079Z,0.51
2023-04-26T00:32:58.101Z,0.50
2023-04-26T00:33:58.105Z,0.50
2023-04-26T00:34:58.140Z,0.50
2023-04-26T00:35:58.167Z,0.50
2023-04-26T00:36:58.201Z,0.51
2023-04-26T00:37:58.212Z,0.51
2023-04-26T00:38:58.243Z,0.50
2023-04-26T00:39:58.270Z,0.50
2023-04-26T00:40:58.312Z,0.51
2023-04-26T00:41:58.347Z,0.51
2023-04-26T00:42:59.335Z,0.50
2023-04-26T00:43:58.412Z,0.50
2023-04-26T00:44:58.447Z,0.50
2023-04-26T00:45:58.530Z,0.50
2023-04-26T00:46:58.522Z,0.51
2023-04-26T00:47:58.621Z,0.50
2023-04-26T00:48:58.602Z,0.50
2023-04-26T00:49:58.657Z,0.51
2023-04-26T00:50:58.673Z,0.51
2023-04-26T00:51:58.703Z,0.51
2023-04-26T00:52:58.716Z,0.51
2023-04-26T00:53:58.760Z,0.50
2023-04-26T00:54:58.792Z,0.52
2023-04-26T00:55:58.866Z,0.51
2023-04-26T00:56:58.886Z,0.51
2023-04-26T00:57:58.898Z,0.52
2023-04-26T00:58:58.966Z,0.51
2023-04-26T00:59:58.969Z,0.51
2023-04-26T01:00:59.014Z,0.51
2023-04-26T01:01:59.069Z,0.51
2023-04-26T01:02:59.168Z,0.51
2023-04-26T01:03:59.258Z,0.51
2023-04-26T01:04:59.096Z,0.51
2023-04-26T01:05:59.130Z,0.51
2023-04-26T01:06:59.160Z,0.51
2023-04-26T01:07:59.203Z,0.50
2023-04-26T01:08:59.221Z,0.50
2023-04-26T01:09:59.274Z,0.51
2023-04-26T01:10:59.326Z,0.51
2023-04-26T01:11:59.325Z,0.52
2023-04-26T01:12:59.406Z,0.51
2023-04-26T01:13:59.398Z,0.52
2023-04-26T01:14:59.458Z,0.51
2023-04-26T01:15:59.444Z,0.51
2023-04-26T01:16:59.521Z,0.51
2023-04-26T01:17:59.545Z,0.52
2023-04-26T01:18:59.543Z,0.51
2023-04-26T01:19:59.827Z,0.50
2023-04-26T01:21:00.933Z,0.51
2023-04-26T01:21:59.552Z,0.52
2023-04-26T01:22:59.556Z,0.51
2023-04-26T01:23:59.547Z,0.51
2023-04-26T01:24:59.532Z,0.51
2023-04-26T01:25:59.529Z,0.51
2023-04-26T01:27:00.322Z,0.51
2023-04-26T01:27:59.516Z,0.52
2023-04-26T01:28:59.507Z,0.51
2023-04-26T01:29:59.497Z,0.51
2023-04-26T01:30:59.532Z,0.51
2023-04-26T01:31:59.480Z,0.50
2023-04-26T01:32:59.536Z,0.51
2023-04-26T01:33:59.483Z,0.52
2023-04-26T01:34:59.466Z,0.51
2023-04-26T01:35:59.462Z,0.51
2023-04-26T01:36:59.468Z,0.51
2023-04-26T01:37:59.455Z,0.51
2023-04-26T01:38:59.443Z,0.52
2023-04-26T01:39:59.437Z,0.51
2023-04-26T01:40:59.429Z,0.51
2023-04-26T01:41:59.421Z,0.50
2023-04-26T01:42:59.434Z,0.52
2023-04-26T01:43:59.410Z,0.51
2023-04-26T01:44:59.446Z,0.51
2023-04-26T01:45:59.587Z,0.52
2023-04-26T01:46:59.537Z,0.50
2023-04-26T01:47:59.583Z,0.51
2023-04-26T01:48:59.601Z,0.51
2023-04-26T01:49:59.630Z,0.51
2023-04-26T01:50:59.672Z,0.51
2023-04-26T01:51:59.717Z,0.52
2023-04-26T01:52:59.725Z,0.52
2023-04-26T01:53:59.759Z,0.52
2023-04-26T01:54:59.760Z,0.51
2023-04-26T01:55:59.766Z,0.50
2023-04-26T01:56:59.789Z,0.51
2023-04-26T01:57:59.797Z,0.52
2023-04-26T01:58:59.812Z,0.52
2023-04-26T02:00:00.341Z,0.51
2023-04-26T02:00:59.845Z,0.51
2023-04-26T02:01:59.938Z,0.52
2023-04-26T02:03:00.019Z,0.51
2023-04-26T02:03:59.917Z,0.51
2023-04-26T02:05:00.062Z,0.52
2023-04-26T02:05:59.957Z,0.51
2023-04-26T02:06:59.983Z,0.50
2023-04-26T02:08:00.022Z,0.51
2023-04-26T02:09:00.063Z,0.51
2023-04-26T02:10:00.156Z,0.51
2023-04-26T02:11:00.149Z,0.51
2023-04-26T02:12:00.155Z,0.50
2023-04-26T02:13:00.182Z,0.50
2023-04-26T02:14:00.201Z,0.52
2023-04-26T02:15:00.227Z,0.51
2023-04-26T02:16:00.273Z,0.50
2023-04-26T02:17:00.257Z,0.50
2023-04-26T02:18:00.334Z,0.50
2023-04-26T02:19:00.374Z,0.51
2023-04-26T02:20:00.330Z,0.51
2023-04-26T02:21:00.354Z,0.50
2023-04-26T02:22:00.396Z,0.51
2023-04-26T02:23:00.428Z,0.51
2023-04-26T02:24:00.464Z,0.52
2023-04-26T02:25:00.493Z,0.52
2023-04-26T02:26:00.523Z,0.52
2023-04-26T02:27:00.564Z,0.50
2023-04-26T02:28:00.582Z,0.51
2023-04-26T02:29:00.606Z,0.52
2023-04-26T02:30:00.614Z,0.51
2023-04-26T02:31:00.675Z,0.52
2023-04-26T02:32:00.684Z,0.51
2023-04-26T02:33:00.736Z,0.50
2023-04-26T02:34:00.757Z,0.51
2023-04-26T02:35:00.794Z,0.51
2023-04-26T02:36:00.796Z,0.51
2023-04-26T02:37:00.840Z,0.51
2023-04-26T02:38:00.860Z,0.51
2023-04-26T02:39:00.897Z,0.51
2023-04-26T02:40:00.941Z,0.51
2023-04-26T02:41:00.971Z,0.50
2023-04-26T02:42:01.000Z,0.51
2023-04-26T02:43:01.043Z,0.52
2023-04-26T02:44:01.066Z,0.52
2023-04-26T02:45:01.104Z,0.51
2023-04-26T02:46:01.153Z,0.51
2023-04-26T02:47:01.178Z,0.51
2023-04-26T02:48:01.194Z,0.51
2023-04-26T02:49:01.230Z,0.51
2023-04-26T02:50:01.250Z,0.51
2023-04-26T02:51:01.317Z,0.51
2023-04-26T02:52:01.320Z,0.51
2023-04-26T02:53:01.327Z,0.51
2023-04-26T02:54:01.333Z,0.50
2023-04-26T02:55:01.345Z,0.51
2023-04-26T02:56:01.387Z,0.50
2023-04-26T02:57:01.429Z,0.51
2023-04-26T02:58:01.447Z,0.51
2023-04-26T02:59:01.458Z,0.50
2023-04-26T03:00:01.492Z,0.51
2023-04-26T03:01:01.911Z,0.51
2023-04-26T03:02:01.604Z,0.52
2023-04-26T03:03:01.712Z,0.50
2023-04-26T03:04:01.783Z,0.52
2023-04-26T03:05:01.655Z,0.51
2023-04-26T03:06:01.686Z,0.50
2023-04-26T03:07:01.766Z,0.52
2023-04-26T03:08:01.799Z,0.51
2023-04-26T03:09:01.778Z,0.50
2023-04-26T03:10:01.824Z,0.50
2023-04-26T03:11:01.866Z,0.52
2023-04-26T03:12:01.860Z,0.50
2023-04-26T03:13:01.883Z,0.50
2023-04-26T03:14:01.911Z,0.51
2023-04-26T03:15:01.955Z,0.51
2023-04-26T03:16:02.109Z,0.51
2023-04-26T03:17:02.096Z,0.50
2023-04-26T03:18:02.080Z,0.51
2023-04-26T03:19:02.084Z,0.51
2023-04-26T03:20:02.929Z,0.51
2023-04-26T03:21:02.162Z,0.50
2023-04-26T03:22:02.196Z,0.52
2023-04-26T03:23:02.256Z,0.51
2023-04-26T03:24:02.264Z,0.51
2023-04-26T03:25:02.313Z,0.51
2023-04-26T03:26:02.346Z,0.51
2023-04-26T03:27:02.386Z,0.52
2023-04-26T03:28:02.412Z,0.51
2023-04-26T03:29:02.449Z,0.51
2023-04-26T03:30:02.472Z,0.51
2023-04-26T03:31:02.518Z,0.52
2023-04-26T03:32:02.563Z,0.52
2023-04-26T03:33:02.641Z,0.52
2023-04-26T03:34:02.613Z,0.51
2023-04-26T03:35:02.661Z,0.51
2023-04-26T03:36:02.699Z,0.51
2023-04-26T03:37:02.735Z,0.51
2023-04-26T03:38:02.772Z,0.51
2023-04-26T03:39:02.830Z,0.53
2023-04-26T03:40:02.838Z,0.51
2023-04-26T03:41:02.875Z,0.51
2023-04-26T03:42:02.965Z,0.53
2023-04-26T03:43:02.968Z,0.51
2023-04-26T03:44:02.981Z,0.51
2023-04-26T03:45:02.990Z,0.52
2023-04-26T03:46:03.047Z,0.52
2023-04-26T03:47:03.065Z,0.51
2023-04-26T03:48:03.135Z,0.51
2023-04-26T03:49:03.114Z,0.52
2023-04-26T03:50:03.188Z,0.52
2023-04-26T03:51:03.207Z,0.52
2023-04-26T03:52:03.211Z,0.51
2023-04-26T03:53:03.242Z,0.51
2023-04-26T03:54:03.269Z,0.51
2023-04-26T03:55:03.334Z,0.51
2023-04-26T03:56:03.393Z,0.51
2023-04-26T03:57:03.362Z,0.50
2023-04-26T03:58:03.387Z,0.51
2023-04-26T03:59:03.425Z,0.51
2023-04-26T04:00:03.458Z,0.52
2023-04-26T04:01:03.491Z,0.51
2023-04-26T04:02:03.537Z,0.51
2023-04-26T04:03:03.766Z,0.51
2023-04-26T04:04:03.962Z,0.51
2023-04-26T04:05:03.763Z,0.51
2023-04-26T04:06:03.631Z,0.51
2023-04-26T04:07:03.667Z,0.50
2023-04-26T04:08:03.645Z,0.51
2023-04-26T04:09:03.671Z,0.50
2023-04-26T04:10:03.679Z,0.51
2023-04-26T04:11:03.741Z,0.51
2023-04-26T04:12:03.761Z,0.51
2023-04-26T04:13:03.773Z,0.51
2023-04-26T04:14:03.799Z,0.51
2023-04-26T04:15:03.827Z,0.51
2023-04-26T04:16:03.858Z,0.51
2023-04-26T04:17:03.866Z,0.51
2023-04-26T04:18:03.942Z,0.52
2023-04-26T04:19:03.906Z,0.51
2023-04-26T04:20:03.925Z,0.51
2023-04-26T04:21:03.925Z,0.51
2023-04-26T04:22:03.928Z,0.52
2023-04-26T04:23:03.964Z,0.50
2023-04-26T04:24:03.999Z,0.52
2023-04-26T04:25:04.032Z,0.52
2023-04-26T04:26:04.080Z,0.51
2023-04-26T04:27:04.129Z,0.51
2023-04-26T04:28:04.116Z,0.51
2023-04-26T04:29:04.130Z,0.50
2023-04-26T04:30:04.147Z,0.50
2023-04-26T04:31:04.200Z,0.51
2023-04-26T04:32:04.189Z,0.51
2023-04-26T04:33:04.228Z,0.51
2023-04-26T04:34:04.258Z,0.52
2023-04-26T04:35:04.251Z,0.50
2023-04-26T04:36:04.282Z,0.51
2023-04-26T04:37:04.364Z,0.51
2023-04-26T04:38:04.420Z,0.51
2023-04-26T04:39:04.375Z,0.51
2023-04-26T04:40:04.422Z,0.51
2023-04-26T04:41:04.477Z,0.52
2023-04-26T04:42:04.513Z,0.51
2023-04-26T04:43:04.566Z,0.51
2023-04-26T04:44:04.565Z,0.51
2023-04-26T04:45:04.605Z,0.51
2023-04-26T04:46:04.679Z,0.51
2023-04-26T04:47:04.691Z,0.50
2023-04-26T04:48:04.797Z,0.51
2023-04-26T04:49:04.764Z,0.51
2023-04-26T04:50:04.804Z,0.51
2023-04-26T04:51:04.845Z,0.52
2023-04-26T04:52:04.868Z,0.51
2023-04-26T04:53:04.902Z,0.51
2023-04-26T04:54:04.931Z,0.51
2023-04-26T04:55:04.967Z,0.51
2023-04-26T04:56:05.009Z,0.52
2023-04-26T04:57:05.032Z,0.51
2023-04-26T04:58:05.055Z,0.52
2023-04-26T04:59:05.111Z,0.51
2023-04-26T05:00:05.229Z,0.51
2023-04-26T05:01:05.147Z,0.51
2023-04-26T05:02:05.247Z,0.51
2023-04-26T05:03:05.465Z,0.51
2023-04-26T05:04:05.456Z,0.50
2023-04-26T05:05:05.528Z,0.51
2023-04-26T05:06:05.333Z,0.52
2023-04-26T05:07:05.364Z,0.51
2023-04-26T05:08:05.397Z,0.50
2023-04-26T05:09:05.425Z,0.51
2023-04-26T05:10:05.495Z,0.51
2023-04-26T05:11:05.505Z,0.51
2023-04-26T05:12:05.541Z,0.51
2023-04-26T05:13:05.570Z,0.51
2023-04-26T05:14:05.609Z,0.51
2023-04-26T05:15:05.690Z,0.51
2023-04-26T05:16:05.710Z,0.50
2023-04-26T05:17:05.925Z,0.51
2023-04-26T05:18:05.804Z,0.50
2023-04-26T05:19:08.656Z,0.50
2023-04-26T05:20:05.766Z,0.51
2023-04-26T05:21:05.786Z,0.51
2023-04-26T05:22:05.923Z,0.51
2023-04-26T05:23:05.785Z,0.52
2023-04-26T05:24:05.761Z,0.52
2023-04-26T05:25:05.786Z,0.53
2023-04-26T05:26:05.763Z,0.53
2023-04-26T05:27:05.959Z,0.53
2023-04-26T05:28:05.724Z,0.52
2023-04-26T05:29:05.722Z,0.54
2023-04-26T05:30:05.700Z,0.53
2023-04-26T05:31:05.735Z,0.53
2023-04-26T05:32:05.797Z,0.54
2023-04-26T05:33:05.708Z,0.55
2023-04-26T05:34:05.681Z,0.56
2023-04-26T05:35:05.928Z,0.56
2023-04-26T05:36:05.656Z,0.55
2023-04-26T05:37:05.656Z,0.57
2023-04-26T05:38:05.704Z,0.57
2023-04-26T05:39:05.644Z,0.57
2023-04-26T05:40:05.937Z,0.57
2023-04-26T05:41:05.640Z,0.56
2023-04-26T05:42:05.618Z,0.59
2023-04-26T05:43:05.654Z,0.59
2023-04-26T05:44:05.597Z,0.60
2023-04-26T05:45:05.947Z,0.59
2023-04-26T05:46:05.683Z,0.61
2023-04-26T05:47:05.617Z,0.61
2023-04-26T05:48:05.717Z,0.61
2023-04-26T05:49:05.702Z,0.62
2023-04-26T05:50:05.938Z,0.63
2023-04-26T05:51:05.652Z,0.61
2023-04-26T05:52:05.712Z,0.66
2023-04-26T05:53:05.697Z,0.67
2023-04-26T05:54:05.955Z,0.68
2023-04-26T05:55:06.324Z,0.70
2023-04-26T05:56:05.710Z,0.72
2023-04-26T05:57:05.695Z,0.76
2023-04-26T05:58:05.735Z,0.78
2023-04-26T05:59:05.994Z,0.80
2023-04-26T06:00:05.726Z,0.85
2023-04-26T06:01:05.712Z,0.87
2023-04-26T06:02:06.014Z,0.92
2023-04-26T06:03:06.037Z,0.95
2023-04-26T06:04:06.115Z,0.98
2023-04-26T06:05:06.078Z,1.03
2023-04-26T06:06:05.799Z,1.05
2023-04-26T06:07:05.842Z,1.14
2023-04-26T06:08:05.974Z,1.17
2023-04-26T06:09:05.858Z,1.24
2023-04-26T06:10:05.954Z,1.28
2023-04-26T06:11:05.884Z,1.33
2023-04-26T06:12:05.906Z,1.37
2023-04-26T06:13:05.892Z,1.45
2023-04-26T06:14:06.749Z,1.51
2023-04-26T06:15:06.452Z,1.52
2023-04-26T06:16:06.068Z,1.58
2023-04-26T06:17:06.200Z,1.67
2023-04-26T06:18:06.212Z,1.69
2023-04-26T06:19:06.247Z,1.78
2023-04-26T06:20:06.448Z,1.81
2023-04-26T06:21:06.304Z,1.82
2023-04-26T06:22:06.376Z,1.84
2023-04-26T06:23:06.417Z,1.86
2023-04-26T06:24:06.479Z,1.89
2023-04-26T06:25:07.455Z,2.02
2023-04-26T06:26:06.946Z,2.10
2023-04-26T06:27:06.656Z,2.12
2023-04-26T06:28:06.730Z,2.22
2023-04-26T06:29:06.774Z,2.25
2023-04-26T06:30:06.850Z,2.41
2023-04-26T06:31:06.989Z,2.43
2023-04-26T06:32:06.939Z,2.45
2023-04-26T06:33:07.033Z,2.58
2023-04-26T06:34:08.426Z,2.62
2023-04-26T06:35:07.625Z,2.69
2023-04-26T06:36:07.241Z,2.85
2023-04-26T06:37:07.458Z,2.95
2023-04-26T06:38:07.592Z,2.91
2023-04-26T06:39:10.561Z,2.89
2023-04-26T06:40:07.374Z,2.89
2023-04-26T06:41:07.468Z,2.87
2023-04-26T06:42:07.344Z,2.77
2023-04-26T06:43:07.331Z,1.89
2023-04-26T06:44:07.321Z,1.14
2023-04-26T06:45:07.484Z,0.86
2023-04-26T06:46:08.353Z,0.67
2023-04-26T06:47:07.354Z,0.59
2023-04-26T06:48:08.010Z,0.91
2023-04-26T06:49:07.327Z,1.05
2023-04-26T06:50:07.463Z,1.24
2023-04-26T06:51:07.319Z,1.13
2023-04-26T06:52:08.689Z,1.17
2023-04-26T06:53:07.260Z,1.09
2023-04-26T06:54:07.271Z,0.99
2023-04-26T06:55:07.463Z,0.90
2023-04-26T06:56:07.988Z,0.84
2023-04-26T06:57:07.245Z,0.80
2023-04-26T06:58:07.230Z,0.81
2023-04-26T06:59:07.222Z,0.80
2023-04-26T07:00:07.241Z,0.78
2023-04-26T07:01:07.229Z,0.79
2023-04-26T07:02:07.525Z,0.79
2023-04-26T07:03:07.423Z,0.80
2023-04-26T07:04:07.539Z,0.80
2023-04-26T07:05:08.269Z,0.80
2023-04-26T07:06:07.206Z,0.81
2023-04-26T07:07:07.558Z,0.78
2023-04-26T07:08:07.910Z,0.81
2023-04-26T07:09:07.160Z,0.81
2023-04-26T07:10:07.548Z,0.83
2023-04-26T07:11:07.162Z,0.81
2023-04-26T07:12:07.139Z,0.83
2023-04-26T07:13:09.491Z,0.83
2023-04-26T07:14:07.124Z,0.85
2023-04-26T07:15:07.121Z,0.86
2023-04-26T07:16:07.131Z,0.87
2023-04-26T07:17:07.118Z,0.86
2023-04-26T07:18:07.532Z,0.87
2023-04-26T07:19:07.094Z,0.88
2023-04-26T07:20:07.481Z,0.88
2023-04-26T07:21:07.079Z,0.89
2023-04-26T07:22:07.100Z,0.86
2023-04-26T07:23:07.500Z,0.88
2023-04-26T07:24:07.054Z,0.87
2023-04-26T07:25:07.065Z,0.85
2023-04-26T07:26:07.064Z,0.85
2023-04-26T07:27:07.030Z,0.87
2023-04-26T07:28:07.588Z,0.86
2023-04-26T07:29:07.021Z,0.89
2023-04-26T07:30:07.238Z,0.89
2023-04-26T07:31:09.581Z,0.90
2023-04-26T07:32:07.055Z,0.90
2023-04-26T07:33:08.143Z,0.90
2023-04-26T07:34:07.017Z,0.91
2023-04-26T07:35:06.988Z,0.90
2023-04-26T07:36:06.985Z,0.89
2023-04-26T07:37:07.484Z,0.91
2023-04-26T07:38:06.983Z,0.91
2023-04-26T07:39:06.996Z,0.72
2023-04-26T07:40:06.952Z,0.84
2023-04-26T07:41:07.059Z,0.81
2023-04-26T07:42:07.331Z,0.87
2023-04-26T07:43:06.969Z,0.88
2023-04-26T07:44:06.940Z,0.92
2023-04-26T07:45:07.015Z,0.97
2023-04-26T07:46:06.964Z,1.03
2023-04-26T07:47:06.934Z,1.05
2023-04-26T07:48:06.938Z,1.04
2023-04-26T07:49:06.896Z,1.12
2023-04-26T07:50:07.028Z,1.18
2023-04-26T07:51:07.979Z,1.22
2023-04-26T07:52:06.903Z,1.24
2023-04-26T07:53:06.904Z,1.29
2023-04-26T07:54:06.900Z,1.27
2023-04-26T07:55:07.144Z,1.25
2023-04-26T07:56:06.991Z,1.25
2023-04-26T07:57:06.900Z,1.26
2023-04-26T07:58:06.895Z,1.29
2023-04-26T07:59:06.892Z,1.29
2023-04-26T08:00:07.026Z,1.30
2023-04-26T08:01:07.006Z,1.32
2023-04-26T08:02:07.022Z,1.31
2023-04-26T08:03:07.126Z,1.31
2023-04-26T08:04:07.051Z,1.33
2023-04-26T08:05:07.204Z,1.36
2023-04-26T08:06:07.079Z,1.36
2023-04-26T08:07:06.883Z,1.37
2023-04-26T08:08:06.979Z,1.35
2023-04-26T08:09:06.878Z,1.36
2023-04-26T08:10:06.876Z,1.36
2023-04-26T08:11:07.261Z,1.36
2023-04-26T08:12:07.026Z,1.36
2023-04-26T08:13:06.877Z,1.37
2023-04-26T08:14:06.871Z,1.38
2023-04-26T08:15:06.998Z,1.37
2023-04-26T08:16:06.894Z,1.34
2023-04-26T08:17:07.008Z,1.38
2023-04-26T08:18:06.979Z,1.36
2023-04-26T08:19:06.985Z,1.39
2023-04-26T08:20:07.029Z,1.40
2023-04-26T08:21:07.019Z,1.38
2023-04-26T08:22:07.185Z,1.38
2023-04-26T08:23:06.979Z,1.36
2023-04-26T08:24:06.985Z,1.38
2023-04-26T08:25:07.044Z,1.38
2023-04-26T08:26:07.530Z,1.37
2023-04-26T08:27:07.138Z,1.39
2023-04-26T08:28:07.565Z,1.37
2023-04-26T08:29:07.113Z,1.39
2023-04-26T08:30:07.117Z,1.36
2023-04-26T08:31:07.554Z,1.37
2023-04-26T08:32:07.217Z,1.38
2023-04-26T08:33:07.199Z,1.35
2023-04-26T08:34:07.262Z,1.36
2023-04-26T08:35:07.243Z,1.38
2023-04-26T08:36:07.510Z,1.40
2023-04-26T08:37:07.254Z,1.41
2023-04-26T08:38:07.266Z,1.40
2023-04-26T08:39:07.259Z,1.38
2023-04-26T08:40:07.271Z,1.37
2023-04-26T08:41:07.504Z,1.39
2023-04-26T08:42:07.279Z,1.37
2023-04-26T08:43:07.316Z,1.37
2023-04-26T08:44:07.302Z,1.40
2023-04-26T08:45:07.530Z,1.38
2023-04-26T08:46:07.393Z,1.38
2023-04-26T08:47:07.351Z,1.38
2023-04-26T08:48:07.481Z,1.38
2023-04-26T08:49:10.558Z,1.36
2023-04-26T08:50:07.524Z,1.36
2023-04-26T08:51:07.355Z,1.37
2023-04-26T08:52:07.393Z,1.38
2023-04-26T08:53:07.341Z,1.39
2023-04-26T08:54:07.331Z,1.41
2023-04-26T08:55:07.324Z,1.38
2023-04-26T08:56:07.664Z,1.37
2023-04-26T08:57:07.313Z,1.39
2023-04-26T08:58:07.304Z,1.39
2023-04-26T08:59:07.325Z,1.39
2023-04-26T09:00:07.449Z,1.36
2023-04-26T09:01:07.514Z,1.36
2023-04-26T09:02:07.440Z,1.37
2023-04-26T09:03:07.435Z,1.36
2023-04-26T09:04:07.458Z,1.36
2023-04-26T09:05:07.326Z,1.36
2023-04-26T09:06:07.265Z,1.34
2023-04-26T09:07:07.358Z,1.33
2023-04-26T09:08:07.272Z,1.36
2023-04-26T09:09:07.232Z,1.35
2023-04-26T09:10:07.227Z,1.35
2023-04-26T09:11:07.521Z,1.35
2023-04-26T09:12:07.219Z,1.32
2023-04-26T09:13:07.274Z,1.31
2023-04-26T09:14:07.193Z,1.33
2023-04-26T09:15:07.231Z,1.33
2023-04-26T09:16:07.567Z,1.31
2023-04-26T09:17:07.177Z,1.32
2023-04-26T09:18:07.178Z,1.32
2023-04-26T09:19:07.162Z,1.27
2023-04-26T09:20:07.961Z,1.30
2023-04-26T09:21:07.536Z,1.29
2023-04-26T09:22:07.132Z,1.31
2023-04-26T09:23:07.178Z,1.30
2023-04-26T09:24:07.528Z,1.30
2023-04-26T09:25:07.134Z,1.29
2023-04-26T09:26:07.137Z,1.30
2023-04-26T09:27:07.144Z,1.28
2023-04-26T09:28:07.095Z,1.28
2023-04-26T09:29:07.522Z,1.34
2023-04-26T09:30:07.080Z,1.37
2023-04-26T09:31:07.787Z,1.61
2023-04-26T09:32:07.074Z,1.74
2023-04-26T09:33:07.163Z,1.73
2023-04-26T09:34:07.096Z,1.50
2023-04-26T09:35:07.075Z,0.95
2023-04-26T09:36:07.534Z,0.76
2023-04-26T09:37:07.042Z,0.52
2023-04-26T09:38:11.008Z,0.50
2023-04-26T09:39:07.050Z,0.46
2023-04-26T09:40:07.025Z,0.46
2023-04-26T09:41:07.545Z,0.51
2023-04-26T09:42:07.024Z,0.60
2023-04-26T09:43:07.014Z,0.73
2023-04-26T09:44:06.995Z,0.78
2023-04-26T09:45:06.999Z,0.87
2023-04-26T09:46:07.033Z,0.96
2023-04-26T09:47:07.189Z,1.00
2023-04-26T09:48:07.009Z,1.10
2023-04-26T09:49:06.970Z,1.17
2023-04-26T09:50:07.039Z,1.26
2023-04-26T09:51:07.026Z,1.31
2023-04-26T09:52:06.943Z,1.45
2023-04-26T09:53:06.940Z,1.65
2023-04-26T09:54:06.949Z,1.68
2023-04-26T09:55:06.928Z,1.83
2023-04-26T09:56:07.039Z,1.93
2023-04-26T09:57:06.920Z,2.05
2023-04-26T09:58:06.907Z,2.23
2023-04-26T09:59:06.905Z,2.36
2023-04-26T10:00:07.041Z,2.55
2023-04-26T10:01:07.094Z,2.62
2023-04-26T10:02:06.882Z,2.89
2023-04-26T10:03:07.067Z,3.11
2023-04-26T10:04:06.975Z,3.28
2023-04-26T10:05:06.897Z,3.41
2023-04-26T10:06:07.048Z,3.81
2023-04-26T10:07:06.858Z,3.97
2023-04-26T10:08:06.838Z,4.17
2023-04-26T10:09:06.836Z,4.22
2023-04-26T10:10:06.887Z,4.27
2023-04-26T10:11:07.039Z,4.30
2023-04-26T10:12:06.973Z,3.89
2023-04-26T10:13:07.033Z,3.66
2023-04-26T10:14:07.057Z,3.37
2023-04-26T10:15:07.107Z,3.26
2023-04-26T10:16:07.570Z,3.24
2023-04-26T10:17:07.207Z,3.11
2023-04-26T10:18:07.590Z,2.97
2023-04-26T10:19:07.388Z,2.85
2023-04-26T10:20:07.382Z,2.78
2023-04-26T10:21:07.449Z,2.71
2023-04-26T10:22:07.485Z,2.63
2023-04-26T10:23:08.058Z,2.57
2023-04-26T10:24:07.616Z,2.52
2023-04-26T10:25:07.670Z,2.40
2023-04-26T10:26:08.543Z,2.29
2023-04-26T10:27:07.762Z,2.28
2023-04-26T10:28:07.791Z,2.26
2023-04-26T10:29:08.270Z,2.23
2023-04-26T10:30:08.306Z,2.04
2023-04-26T10:31:08.446Z,1.92
2023-04-26T10:32:08.737Z,1.84
2023-04-26T10:33:08.055Z,1.70
2023-04-26T10:34:09.855Z,1.71
2023-04-26T10:35:08.540Z,1.74
2023-04-26T10:36:08.981Z,1.77
2023-04-26T10:37:08.483Z,1.70
2023-04-26T10:38:08.888Z,1.66
2023-04-26T10:39:08.446Z,1.61
2023-04-26T10:40:08.606Z,1.65
2023-04-26T10:41:08.423Z,1.67
2023-04-26T10:42:08.414Z,1.60
2023-04-26T10:43:08.476Z,1.63
2023-04-26T10:44:08.348Z,1.55
2023-04-26T10:45:08.461Z,1.51
2023-04-26T10:46:08.512Z,1.58
2023-04-26T10:47:08.551Z,1.53
2023-04-26T10:48:08.565Z,1.53
2023-04-26T10:49:08.715Z,1.50
2023-04-26T10:50:08.193Z,1.52
2023-04-26T10:51:08.800Z,1.53
2023-04-26T10:52:09.111Z,1.43
2023-04-26T10:53:08.686Z,1.41
2023-04-26T10:54:08.357Z,1.42
2023-04-26T10:55:08.401Z,1.36
2023-04-26T10:56:08.461Z,1.24
2023-04-26T10:57:08.495Z,1.19
2023-04-26T10:58:08.518Z,1.23
2023-04-26T10:59:30.646Z,1.28
2023-04-26T11:00:08.526Z,1.29
2023-04-26T11:01:08.665Z,1.29
2023-04-26T11:02:08.558Z,1.24
2023-04-26T11:03:08.894Z,1.27
2023-04-26T11:04:08.715Z,1.24
2023-04-26T11:05:08.634Z,1.21
2023-04-26T11:06:08.567Z,1.19
2023-04-26T11:07:08.515Z,1.14
2023-04-26T11:08:08.696Z,1.08
2023-04-26T11:09:08.465Z,1.05
2023-04-26T11:10:08.481Z,1.02
2023-04-26T11:11:08.483Z,1.06
2023-04-26T11:12:08.503Z,1.05
2023-04-26T11:13:08.442Z,1.09
2023-04-26T11:14:08.441Z,1.08
2023-04-26T11:15:08.431Z,0.60
2023-04-26T11:16:08.735Z,0.55
2023-04-26T11:17:09.183Z,0.48
2023-04-26T11:18:08.478Z,0.42
2023-04-26T11:19:08.408Z,0.52
2023-04-26T11:20:08.402Z,0.51
2023-04-26T11:21:08.418Z,0.49
2023-04-26T11:22:08.387Z,0.58
2023-04-26T11:23:08.404Z,0.62
2023-04-26T11:24:08.379Z,0.71
2023-04-26T11:25:08.381Z,0.84
2023-04-26T11:26:08.814Z,0.92
2023-04-26T11:27:08.364Z,0.94
2023-04-26T11:28:08.351Z,1.05
2023-04-26T11:29:08.342Z,1.10
2023-04-26T11:30:08.338Z,1.11
2023-04-26T11:31:08.653Z,0.91
2023-04-26T11:32:09.047Z,0.96
2023-04-26T11:33:08.406Z,1.04
2023-04-26T11:34:08.313Z,1.02
2023-04-26T11:35:08.296Z,1.06
2023-04-26T11:36:08.580Z,0.81
2023-04-26T11:37:08.320Z,0.40
2023-04-26T11:38:08.296Z,0.36
2023-04-26T11:39:08.353Z,0.36
2023-04-26T11:40:08.609Z,0.41
2023-04-26T11:41:08.307Z,0.54
2023-04-26T11:42:08.308Z,0.70
2023-04-26T11:43:08.333Z,0.77
2023-04-26T11:44:08.429Z,0.87
2023-04-26T11:45:08.587Z,0.93
2023-04-26T11:46:08.487Z,0.93
2023-04-26T11:47:08.537Z,0.90
2023-04-26T11:48:08.502Z,0.91
2023-04-26T11:49:08.425Z,0.96
2023-04-26T11:50:08.424Z,0.98
2023-04-26T11:51:08.631Z,1.02
2023-04-26T11:52:08.441Z,1.05
2023-04-26T11:53:08.470Z,1.17
2023-04-26T11:54:08.477Z,0.80
2023-04-26T11:55:08.537Z,0.55
2023-04-26T11:56:08.489Z,0.52
2023-04-26T11:57:08.508Z,0.39
2023-04-26T11:58:08.568Z,0.47
2023-04-26T11:59:08.543Z,0.50
2023-04-26T12:00:09.095Z,0.51
2023-04-26T12:01:09.092Z,0.53
2023-04-26T12:02:08.796Z,0.51
2023-04-26T12:03:09.042Z,0.47
2023-04-26T12:04:09.195Z,0.50
2023-04-26T12:05:08.964Z,0.49
2023-04-26T12:06:08.920Z,0.53
2023-04-26T12:07:08.974Z,0.54
2023-04-26T12:08:09.027Z,0.51
2023-04-26T12:09:09.071Z,0.54
2023-04-26T12:10:09.131Z,0.54
2023-04-26T12:11:09.192Z,0.57
2023-04-26T12:12:09.606Z,0.57
2023-04-26T12:13:09.191Z,0.64
2023-04-26T12:14:09.238Z,0.72
2023-04-26T12:15:09.282Z,0.89
2023-04-26T12:16:18.504Z,1.27
2023-04-26T12:17:09.392Z,1.28
2023-04-26T12:18:09.384Z,1.35
2023-04-26T12:19:09.307Z,1.51
2023-04-26T12:20:09.295Z,1.81
2023-04-26T12:21:09.331Z,2.60
2023-04-26T12:22:09.311Z,2.99
2023-04-26T12:23:09.280Z,3.09
2023-04-26T12:24:09.270Z,3.42
2023-04-26T12:25:09.275Z,3.83
2023-04-26T12:26:09.254Z,4.11
2023-04-26T12:27:09.295Z,4.57
2023-04-26T12:28:09.412Z,5.06
2023-04-26T12:29:09.239Z,5.43
2023-04-26T12:30:09.233Z,5.98
2023-04-26T12:31:09.350Z,6.44
2023-04-26T12:32:09.649Z,7.29
2023-04-26T12:33:17.011Z,7.96
2023-04-26T12:34:09.224Z,8.00
2023-04-26T12:35:09.217Z,8.22
2023-04-26T12:36:09.676Z,8.73
2023-04-26T12:37:09.192Z,10.00
2023-04-26T12:38:09.186Z,12.14
2023-04-26T12:39:09.168Z,13.07
2023-04-26T12:40:09.185Z,14.03
2023-04-26T12:41:09.151Z,14.91
2023-04-26T12:42:09.172Z,16.31
2023-04-26T12:43:09.187Z,17.45
2023-04-26T12:44:09.133Z,18.39
2023-04-26T12:45:09.131Z,19.13
2023-04-26T12:46:09.688Z,20.71
2023-04-26T12:47:09.550Z,21.48
2023-04-26T12:48:09.183Z,21.56
2023-04-26T12:49:09.284Z,22.51
2023-04-26T12:50:09.106Z,23.92
2023-04-26T12:51:09.101Z,25.55
2023-04-26T12:52:10.874Z,26.99
2023-04-26T12:53:09.076Z,28.97
2023-04-26T12:54:09.120Z,30.96
2023-04-26T12:55:09.090Z,31.89
2023-04-26T12:56:09.076Z,33.72
2023-04-26T12:57:09.127Z,37.00
2023-04-26T12:58:09.040Z,22.66
2023-04-26T12:59:09.068Z,27.36
2023-04-26T13:00:09.034Z,18.46
2023-04-26T13:01:09.055Z,8.86
2023-04-26T13:02:09.063Z,4.65
2023-04-26T13:03:09.103Z,3.30
2023-04-26T13:04:10.275Z,2.26
2023-04-26T13:05:08.988Z,2.02
2023-04-26T13:06:08.983Z,1.50
2023-04-26T13:07:09.119Z,1.16
2023-04-26T13:08:09.023Z,1.05
2023-04-26T13:09:09.006Z,0.97
2023-04-26T13:10:11.312Z,0.91
2023-04-26T13:11:09.009Z,0.90
2023-04-26T13:12:09.126Z,0.88
2023-04-26T13:13:09.008Z,0.76
2023-04-26T13:14:08.989Z,0.75
2023-04-26T13:15:09.042Z,0.76
2023-04-26T13:16:09.010Z,0.73
2023-04-26T13:17:08.972Z,0.67
2023-04-26T13:18:09.009Z,0.72